METAR Data
IDs: Format: Raw Decoded Include TAF

Data at: 0237 UTC 20 Jan 2022

K20V 200215Z AUTO 00000KT 10SM SCT055 M13/M15 A3022 RMK AO2
K20V 200155Z AUTO 00000KT 10SM SCT060 M13/M16 A3021 RMK AO2
K20V 200135Z AUTO 00000KT 10SM SCT060 M12/M15 A3020 RMK AO2
K20V 200115Z AUTO 00000KT 10SM SCT060 M11/M15 A3019 RMK AO2
K20V 200055Z AUTO 00000KT 10SM BKN060 OVC070 M11/M15 A3018 RMK AO2
K20V 200035Z AUTO 00000KT 10SM BKN060 OVC070 M10/M14 A3017 RMK AO2
K20V 200015Z AUTO 00000KT 10SM SCT060 OVC070 M10/M14 A3017 RMK AO2
K20V 192355Z AUTO 00000KT 10SM OVC070 M10/M14 A3016 RMK AO2
K20V 192335Z AUTO 00000KT 10SM BKN070 M10/M15 A3016 RMK AO2
K20V 192315Z AUTO 00000KT 10SM OVC070 M10/M15 A3016 RMK AO2
K20V 192255Z AUTO 00000KT 10SM OVC070 M10/M15 A3016 RMK AO2
K20V 192235Z AUTO 00000KT 10SM SCT070 M10/M15 A3015 RMK AO2
K20V 192215Z AUTO 00000KT 10SM SCT070 M10/M15 A3014 RMK AO2
K20V 192155Z AUTO 00000KT 10SM SCT070 M10/M15 A3014 RMK AO2
K20V 192135Z AUTO 00000KT 10SM CLR M08/M15 A3014 RMK AO2
K20V 192115Z AUTO 00000KT 10SM CLR M08/M15 A3014 RMK AO2
K20V 192055Z AUTO 00000KT 10SM CLR M08/M15 A3014 RMK AO2
K20V 192035Z AUTO 00000KT 10SM CLR M08/M15 A3014 RMK AO2
K20V 192015Z AUTO 00000KT 10SM CLR M09/M15 A3015 RMK AO2
K20V 191955Z AUTO 00000KT 10SM CLR M10/M16 A3016 RMK AO2
K20V 191935Z AUTO 00000KT 10SM CLR M10/M16 A3016 RMK AO2
K20V 191915Z AUTO 00000KT 10SM CLR M10/M16 A3017 RMK AO2
K20V 191855Z AUTO 00000KT 10SM CLR M11/M17 A3017 RMK AO2
K20V 191835Z AUTO 00000KT 10SM CLR M12/M17 A3018 RMK AO2
K20V 191815Z AUTO 00000KT 10SM CLR M13/M17 A3019 RMK AO2
K20V 191755Z AUTO 00000KT 10SM CLR M13/M17 A3020 RMK AO2
K20V 191735Z AUTO 00000KT 10SM CLR M14/M18 A3021 RMK AO2
K20V 191715Z AUTO 00000KT 10SM CLR M14/M18 A3020 RMK AO2
K20V 191655Z AUTO 00000KT 10SM CLR M16/M20 A3020 RMK AO2
K20V 191635Z AUTO 00000KT 10SM CLR M17/M20 A3019 RMK AO2
K20V 191615Z AUTO 00000KT 10SM CLR M16/M20 A3019 RMK AO2
K20V 191555Z AUTO 00000KT 10SM CLR M17/M20 A3019 RMK AO2
K20V 191535Z AUTO 00000KT 10SM SCT110 M18/M21 A3018 RMK AO2
K20V 191515Z AUTO 00000KT 10SM BKN120 M18/M20 A3017 RMK AO2
K20V 191455Z AUTO 00000KT 10SM CLR M18/M20 A3017 RMK AO2
K20V 191435Z AUTO 00000KT 10SM CLR M18/M21 A3016 RMK AO2
K20V 191415Z AUTO 00000KT 10SM CLR M20/M22 A3016 RMK AO2
K20V 191355Z AUTO 00000KT 10SM CLR M18/M20 A3015 RMK AO2
K20V 191335Z AUTO 00000KT 10SM CLR M18/M21 A3014 RMK AO2
K20V 191315Z AUTO 00000KT 10SM CLR M18/M20 A3014 RMK AO2
K20V 191255Z AUTO 00000KT 10SM CLR M18/M20 A3014 RMK AO2
K20V 191235Z AUTO 00000KT 10SM CLR M18/M20 A3013 RMK AO2
K20V 191215Z AUTO 00000KT 10SM CLR M18/M20 A3012 RMK AO2
K20V 191155Z AUTO 00000KT 10SM CLR M18/M20 A3012 RMK AO2
K20V 191135Z AUTO 00000KT 10SM CLR M18/M20 A3011 RMK AO2
K20V 191115Z AUTO 00000KT 10SM SCT055 M18/M21 A3011 RMK AO2
K20V 191055Z AUTO 00000KT 10SM OVC055 M17/M20 A3011 RMK AO2
K20V 191035Z AUTO 00000KT 10SM OVC055 M18/M20 A3012 RMK AO2
K20V 191015Z AUTO 00000KT 10SM OVC055 M18/M20 A3012 RMK AO2
K20V 190955Z AUTO 00000KT 10SM BKN065 M19/M21 A3012 RMK AO2
K20V 190935Z AUTO 00000KT 10SM BKN065 M19/M21 A3012 RMK AO2
K20V 190915Z AUTO 00000KT 10SM BKN065 M19/M21 A3011 RMK AO2
K20V 190855Z AUTO 00000KT 10SM BKN065 M18/M21 A3011 RMK AO2
K20V 190835Z AUTO 00000KT 10SM OVC065 M19/M21 A3011 RMK AO2
K20V 190815Z AUTO 00000KT 10SM OVC065 M20/M22 A3010 RMK AO2
K20V 190755Z AUTO 00000KT 10SM BKN065 M20/M21 A3011 RMK AO2
K20V 190735Z AUTO 00000KT 10SM SCT065 M20/M22 A3009 RMK AO2
K20V 190715Z AUTO 00000KT 10SM CLR M20/M22 A3009 RMK AO2
K20V 190655Z AUTO 00000KT 10SM CLR M20/M21 A3010 RMK AO2
K20V 190635Z AUTO 00000KT 10SM CLR M20/M21 A3010 RMK AO2
K20V 190615Z AUTO 00000KT 10SM CLR M20/M21 A3010 RMK AO2
K20V 190555Z AUTO 00000KT 10SM SCT070 M18/M20 A3009 RMK AO2
K20V 190535Z AUTO 00000KT 10SM SCT070 M18/M20 A3009 RMK AO2
K20V 190515Z AUTO 00000KT 10SM CLR M18/M20 A3008 RMK AO2
K20V 190455Z AUTO 03003KT 10SM CLR M18/M20 A3007 RMK AO2
K20V 190435Z AUTO 00000KT 10SM SCT075 M18/M20 A3008 RMK AO2
K20V 190415Z AUTO 00000KT 10SM SCT075 M17/M19 A3007 RMK AO2
K20V 190355Z AUTO 00000KT 10SM CLR M17/M20 A3008 RMK AO2
K20V 190335Z AUTO 00000KT 10SM CLR M17/M19 A3007 RMK AO2
K20V 190315Z AUTO 00000KT 10SM CLR M17/M20 A3007 RMK AO2
K20V 190255Z AUTO 07004KT 10SM CLR M16/M18 A3006 RMK AO2
K20V 190235Z AUTO 12004KT 10SM CLR M16/M19 A3006 RMK AO2
K20V 190215Z AUTO 00000KT 10SM CLR M16/M18 A3006 RMK AO2
K20V 190155Z AUTO 00000KT 10SM CLR M15/M17 A3006 RMK AO2
K20V 190135Z AUTO 00000KT 10SM CLR M14/M17 A3006 RMK AO2
K20V 190115Z AUTO 00000KT 10SM CLR M14/M17 A3005 RMK AO2
K20V 190055Z AUTO 00000KT 10SM CLR M14/M17 A3004 RMK AO2
K20V 190035Z AUTO 07003KT 10SM CLR M13/M16 A3004 RMK AO2
K20V 190015Z AUTO 00000KT 10SM CLR M13/M16 A3003 RMK AO2
K20V 182355Z AUTO 26003KT 10SM CLR M13/M17 A3004 RMK AO2
K20V 182335Z AUTO 00000KT 10SM CLR M12/M16 A3003 RMK AO2
K20V 182315Z AUTO 00000KT 10SM SCT120 M12/M17 A3002 RMK AO2
K20V 182255Z AUTO 00000KT 10SM SCT120 M12/M17 A3002 RMK AO2
K20V 182235Z AUTO 00000KT 10SM CLR M12/M17 A3002 RMK AO2
K20V 182215Z AUTO 00000KT 10SM SCT120 M12/M17 A3001 RMK AO2
K20V 182155Z AUTO 00000KT 10SM CLR M13/M17 A3001 RMK AO2
K20V 182135Z AUTO 22004KT 10SM CLR M12/M17 A3000 RMK AO2
K20V 182115Z AUTO 00000KT 10SM CLR M12/M16 A3001 RMK AO2
K20V 182055Z AUTO 00000KT 10SM CLR M13/M17 A3001 RMK AO2
K20V 182035Z AUTO 26003KT 10SM CLR M11/M17 A3002 RMK AO2
K20V 182015Z AUTO 00000KT 10SM SCT120 M13/M17 A3003 RMK AO2
K20V 181955Z AUTO 00000KT 10SM SCT120 M12/M17 A3003 RMK AO2
K20V 181935Z AUTO 00000KT 10SM SCT120 M13/M18 A3004 RMK AO2
K20V 181915Z AUTO 00000KT 10SM CLR M13/M18 A3006 RMK AO2
K20V 181855Z AUTO 00000KT 10SM CLR M15/M20 A3007 RMK AO2
K20V 181835Z AUTO 00000KT 10SM SCT120 M16/M20 A3008 RMK AO2
K20V 181815Z AUTO 00000KT 10SM BKN120 M17/M21 A3010 RMK AO2
K20V 181755Z AUTO 00000KT 10SM BKN120 M17/M21 A3011 RMK AO2
K20V 181735Z AUTO 00000KT 10SM SCT120 M17/M21 A3011 RMK AO2
K20V 181715Z AUTO 00000KT 10SM CLR M18/M22 A3012 RMK AO2
K20V 181655Z AUTO 00000KT 10SM CLR M18/M22 A3012 RMK AO2
K20V 181635Z AUTO 00000KT 10SM CLR M20/M23 A3012 RMK AO2
K20V 181615Z AUTO 00000KT 7SM CLR M21/M24 A3011 RMK AO2
K20V 181555Z AUTO 00000KT 10SM CLR M22/M25 A3011 RMK AO2
K20V 181535Z AUTO 00000KT 10SM CLR M23/M26 A3010 RMK AO2
K20V 181515Z AUTO 00000KT 10SM CLR M23/M25 A3009 RMK AO2
K20V 181455Z AUTO 00000KT 10SM CLR M24/M26 A3009 RMK AO2